Time;durP1;ratioP1;P1;durP2;ratioP2;P2;SDS_P1;SDS_P2;PMS_P1;PMS_P2;Temp;Humidity;BMP_temperature;BMP_pressure;BME280_temperature;BME280_humidity;BME280_pressure;Samples;Min_cycle;Max_cycle;Signal;HPM_P1;HPM_P2
2023/01/11 00:00:01;;;;;;;2.42;0.95;;;9.60;99.90;;;;;;6187408;28;20378;-80
2023/01/11 00:03:04;;;;;;;4.32;1.00;;;9.60;99.90;;;;;;6159202;28;20582;-79
2023/01/11 00:06:07;;;;;;;1.58;0.93;;;9.60;99.90;;;;;;6179887;28;20058;-79
2023/01/11 00:09:09;;;;;;;4.22;1.30;;;9.60;99.90;;;;;;6193519;28;20065;-79
2023/01/11 00:12:13;;;;;;;5.57;1.23;;;9.60;99.90;;;;;;6194619;28;20046;-79
2023/01/11 00:15:15;;;;;;;1.40;0.60;;;9.60;99.90;;;;;;6197758;28;20050;-79
2023/01/11 00:18:16;;;;;;;1.77;1.17;;;9.70;99.90;;;;;;6196495;28;20050;-79
2023/01/11 00:21:21;;;;;;;2.60;0.90;;;9.70;99.90;;;;;;6200510;28;20076;-79
2023/01/11 00:24:22;;;;;;;3.35;1.25;;;9.70;99.90;;;;;;6201788;28;20436;-79
2023/01/11 00:27:25;;;;;;;8.48;1.23;;;9.70;99.90;;;;;;6201072;28;20061;-79
2023/01/11 00:30:28;;;;;;;3.03;1.13;;;9.70;99.90;;;;;;6199814;28;20113;-79
2023/01/11 00:33:32;;;;;;;3.92;1.05;;;9.80;99.90;;;;;;6198268;28;20550;-79
2023/01/11 00:36:38;;;;;;;1.10;0.70;;;9.80;99.90;;;;;;6200823;28;20050;-79
2023/01/11 00:39:40;;;;;;;3.13;1.00;;;9.80;99.90;;;;;;6201429;28;20648;-79
2023/01/11 00:49:36;;;;;;;2.25;0.85;;;9.80;99.90;;;;;;6124465;29;20043;-79
2023/01/11 00:52:40;;;;;;;2.97;0.77;;;9.80;99.90;;;;;;6124227;29;20557;-79
2023/01/11 00:55:43;;;;;;;1.65;0.63;;;9.80;99.90;;;;;;6198019;28;20066;-79
2023/01/11 00:58:45;;;;;;;5.35;1.00;;;9.80;99.90;;;;;;6198413;28;20066;-79
2023/01/11 01:01:48;;;;;;;1.10;1.00;;;9.80;99.90;;;;;;6199110;28;20054;-79
2023/01/11 01:04:50;;;;;;;0.73;0.65;;;9.90;99.90;;;;;;6198722;28;20121;-79
2023/01/11 01:07:53;;;;;;;3.67;0.70;;;9.90;99.90;;;;;;6200278;28;20058;-79
2023/01/11 01:10:55;;;;;;;0.77;0.60;;;9.80;99.90;;;;;;6200642;28;20096;-79
2023/01/11 01:17:16;;;;;;;0.75;0.52;;;9.90;99.90;;;;;;6200452;28;20046;-79
2023/01/11 01:20:19;;;;;;;1.25;0.47;;;10.00;99.90;;;;;;6199832;28;20531;-79
2023/01/11 01:23:22;;;;;;;1.17;0.77;;;9.90;99.90;;;;;;6196979;28;20471;-79
2023/01/11 01:26:24;;;;;;;1.77;0.65;;;9.90;99.90;;;;;;6199487;28;20050;-79
2023/01/11 01:29:26;;;;;;;4.57;0.95;;;9.90;99.90;;;;;;6199803;28;20053;-79
2023/01/11 01:32:28;;;;;;;4.43;0.60;;;10.00;99.90;;;;;;6199676;28;20054;-79
2023/01/11 01:35:30;;;;;;;4.10;0.95;;;9.90;99.90;;;;;;6223566;28;20137;-80
2023/01/11 01:38:33;;;;;;;2.05;0.90;;;10.00;99.90;;;;;;6214675;28;20077;-79
2023/01/11 01:41:35;;;;;;;1.88;0.95;;;10.00;99.90;;;;;;6199864;28;20056;-79
2023/01/11 01:44:56;;;;;;;3.13;0.70;;;10.00;99.90;;;;;;6199654;28;20057;-79
2023/01/11 01:48:01;;;;;;;1.67;0.60;;;10.00;99.90;;;;;;6199763;28;20062;-79
2023/01/11 01:51:04;;;;;;;0.70;0.43;;;10.00;99.90;;;;;;6199145;28;20066;-79
2023/01/11 01:54:11;;;;;;;1.15;0.70;;;10.00;99.90;;;;;;6198963;28;20053;-79
2023/01/11 01:57:19;;;;;;;1.85;0.90;;;10.10;99.90;;;;;;6199353;28;20053;-79
2023/01/11 02:00:21;;;;;;;1.67;0.80;;;10.10;99.90;;;;;;6198926;28;20519;-79
2023/01/11 02:03:26;;;;;;;1.55;0.50;;;10.10;99.90;;;;;;6200321;28;20301;-79
2023/01/11 02:06:28;;;;;;;2.80;0.40;;;10.00;99.90;;;;;;6197863;28;20054;-78
2023/01/11 02:09:35;;;;;;;2.33;0.50;;;10.00;99.90;;;;;;6197108;28;20097;-79
2023/01/11 02:12:39;;;;;;;1.75;0.57;;;10.00;99.90;;;;;;6198905;28;20046;-79
2023/01/11 02:15:40;;;;;;;3.92;0.50;;;10.00;99.90;;;;;;6199224;28;20412;-79
2023/01/11 02:18:42;;;;;;;1.05;0.77;;;10.10;99.90;;;;;;6197952;28;20393;-79
2023/01/11 02:21:56;;;;;;;0.70;0.70;;;10.00;99.90;;;;;;6199040;28;20042;-79
2023/01/11 02:25:25;;;;;;;2.25;0.88;;;9.90;99.90;;;;;;6198604;28;20053;-78
2023/01/11 02:28:34;;;;;;;2.72;0.80;;;9.90;99.90;;;;;;6197399;28;20513;-78
2023/01/11 02:31:43;;;;;;;1.17;0.73;;;9.90;99.90;;;;;;6199305;28;20086;-79
2023/01/11 02:34:50;;;;;;;1.48;0.70;;;9.80;99.90;;;;;;6198666;28;20049;-79
2023/01/11 02:38:00;;;;;;;1.02;0.73;;;9.80;99.90;;;;;;6198030;28;20076;-78
2023/01/11 02:41:09;;;;;;;0.55;0.50;;;9.80;99.90;;;;;;6198324;28;20050;-79
2023/01/11 02:47:43;;;;;;;1.33;0.47;;;9.80;99.90;;;;;;6198666;28;20054;-79
2023/01/11 02:50:51;;;;;;;5.60;1.05;;;9.70;99.90;;;;;;6198017;28;20100;-79
2023/01/11 02:53:57;;;;;;;2.70;0.80;;;9.60;99.90;;;;;;6198055;28;20049;-79
2023/01/11 02:57:01;;;;;;;1.85;0.82;;;9.50;99.90;;;;;;6195215;28;20043;-79
2023/01/11 03:00:06;;;;;;;3.25;0.82;;;9.40;99.90;;;;;;6197799;28;20053;-79
2023/01/11 03:03:15;;;;;;;0.63;0.63;;;9.40;99.90;;;;;;6197950;28;20120;-79
2023/01/11 03:06:20;;;;;;;3.72;0.85;;;9.40;99.90;;;;;;6197130;28;20046;-78
2023/01/11 03:09:33;;;;;;;1.48;0.93;;;9.50;99.90;;;;;;6195817;28;20065;-79
2023/01/11 03:12:53;;;;;;;1.58;0.70;;;9.50;99.90;;;;;;6196196;28;20068;-79
2023/01/11 03:19:55;;;;;;;2.75;0.80;;;9.60;99.90;;;;;;6190798;28;20133;-79
2023/01/11 03:23:07;;;;;;;1.17;0.73;;;9.60;99.90;;;;;;6197032;28;20052;-79
2023/01/11 03:26:17;;;;;;;2.90;0.68;;;9.70;99.90;;;;;;6196682;28;20050;-79
2023/01/11 03:29:28;;;;;;;0.75;0.75;;;9.70;99.90;;;;;;6197155;28;20057;-78
2023/01/11 03:32:36;;;;;;;1.55;1.02;;;9.80;99.90;;;;;;6197389;28;20058;-79
2023/01/11 03:35:43;;;;;;;;;;;9.80;99.90;;;;;;6198490;28;20196;-79
2023/01/11 03:38:59;;;;;;;2.95;0.75;;;9.80;99.90;;;;;;6208468;28;19932;-79
2023/01/11 03:42:04;;;;;;;2.17;0.82;;;9.90;99.90;;;;;;6220155;28;20072;-79
2023/01/11 03:45:08;;;;;;;1.40;0.70;;;9.90;99.90;;;;;;6221415;28;20472;-79
2023/01/11 03:48:14;;;;;;;1.85;0.50;;;10.00;99.90;;;;;;6219281;28;20050;-79
2023/01/11 03:51:22;;;;;;;1.17;0.77;;;10.00;99.90;;;;;;6218300;28;20050;-79
2023/01/11 03:54:26;;;;;;;1.05;0.60;;;10.00;99.90;;;;;;6195891;28;20078;-79
2023/01/11 03:57:32;;;;;;;1.95;0.75;;;10.10;99.90;;;;;;6199841;28;20086;-79
2023/01/11 04:00:36;;;;;;;1.85;0.60;;;10.20;99.90;;;;;;6201440;28;20093;-78
2023/01/11 04:03:38;;;;;;;1.17;0.98;;;10.20;99.90;;;;;;6201671;28;20070;-79
2023/01/11 04:06:41;;;;;;;0.55;0.43;;;10.30;99.90;;;;;;6201314;28;20639;-78
2023/01/11 04:09:43;;;;;;;0.85;0.63;;;10.40;99.90;;;;;;6199758;28;20129;-79
2023/01/11 04:12:46;;;;;;;1.58;0.80;;;10.40;99.90;;;;;;6200957;28;20483;-79
2023/01/11 04:15:50;;;;;;;0.45;0.45;;;10.50;99.90;;;;;;6202414;28;20062;-79
2023/01/11 04:18:54;;;;;;;3.08;0.73;;;10.50;99.90;;;;;;6199641;28;20053;-79
2023/01/11 04:21:57;;;;;;;1.00;0.70;;;10.50;99.90;;;;;;6200827;28;20054;-79
2023/01/11 04:24:59;;;;;;;3.22;0.82;;;10.60;99.90;;;;;;6201455;28;20046;-79
2023/01/11 04:28:01;;;;;;;5.10;1.20;;;10.70;99.90;;;;;;6200891;28;20403;-78
2023/01/11 04:31:03;;;;;;;0.82;0.70;;;10.70;99.90;;;;;;6200643;28;20054;-78
2023/01/11 04:34:04;;;;;;;1.08;0.95;;;10.70;99.90;;;;;;6200521;28;20034;-79
2023/01/11 04:37:08;;;;;;;0.50;0.40;;;10.70;99.90;;;;;;6200948;28;20043;-79
2023/01/11 04:40:11;;;;;;;1.90;1.20;;;10.80;99.90;;;;;;6200069;28;20580;-79
2023/01/11 04:43:12;;;;;;;3.28;0.68;;;10.80;99.90;;;;;;6200908;28;20042;-79
2023/01/11 04:46:13;;;;;;;1.42;0.45;;;10.80;99.90;;;;;;6201295;28;20053;-79
2023/01/11 04:49:16;;;;;;;1.50;0.40;;;10.90;99.90;;;;;;6199688;28;20053;-79
2023/01/11 04:52:20;;;;;;;2.10;0.80;;;10.90;99.90;;;;;;6200577;28;20054;-79
2023/01/11 04:55:22;;;;;;;1.35;0.70;;;10.90;99.90;;;;;;6201101;28;20053;-79
2023/01/11 04:58:23;;;;;;;2.60;0.40;;;10.90;99.90;;;;;;6190484;28;20079;-79
2023/01/11 05:01:25;;;;;;;0.90;0.50;;;10.90;99.90;;;;;;6176003;28;20051;-79
2023/01/11 05:04:27;;;;;;;2.65;0.85;;;10.90;99.90;;;;;;6176265;28;20067;-79
2023/01/11 05:07:30;;;;;;;1.08;0.40;;;10.90;99.90;;;;;;6174816;28;20062;-79
2023/01/11 05:10:32;;;;;;;2.03;0.40;;;11.00;99.90;;;;;;6188346;28;20050;-79
2023/01/11 05:13:44;;;;;;;1.50;0.60;;;11.00;99.90;;;;;;6200598;28;20031;-79
2023/01/11 05:16:45;;;;;;;2.22;0.60;;;11.00;99.90;;;;;;6199979;28;20054;-79
2023/01/11 05:19:47;;;;;;;2.55;0.60;;;11.10;99.90;;;;;;6199850;28;20419;-79
2023/01/11 05:22:50;;;;;;;0.40;0.40;;;11.00;99.90;;;;;;6199031;28;20299;-79
2023/01/11 05:25:52;;;;;;;0.35;0.35;;;11.00;99.90;;;;;;6199814;28;20066;-79
2023/01/11 05:28:55;;;;;;;7.40;0.85;;;11.00;99.90;;;;;;6198974;28;20046;-80
2023/01/11 05:31:57;;;;;;;1.30;0.40;;;11.00;99.90;;;;;;6200149;28;20085;-79
2023/01/11 05:34:59;;;;;;;0.50;0.50;;;11.00;99.90;;;;;;6199468;28;20047;-79
2023/01/11 05:38:02;;;;;;;0.57;0.50;;;11.00;99.90;;;;;;6198561;28;20050;-79
2023/01/11 05:41:05;;;;;;;0.15;0.10;;;11.00;99.90;;;;;;6199357;28;20519;-79
2023/01/11 05:47:29;;;;;;;0.90;0.57;;;11.10;99.90;;;;;;6200555;28;20046;-79
2023/01/11 05:50:31;;;;;;;0.85;0.47;;;11.00;99.90;;;;;;6223221;28;20053;-79
2023/01/11 05:53:34;;;;;;;0.30;0.30;;;11.00;99.90;;;;;;6223264;28;20054;-79
2023/01/11 05:56:36;;;;;;;0.50;0.50;;;11.00;99.90;;;;;;6223187;28;20045;-79
2023/01/11 05:59:38;;;;;;;1.58;0.40;;;11.00;99.90;;;;;;6221338;28;20189;-79
2023/01/11 06:02:40;;;;;;;0.38;0.38;;;11.00;99.90;;;;;;6198540;28;20046;-80
2023/01/11 06:05:41;;;;;;;0.57;0.55;;;10.90;99.90;;;;;;6198807;28;20054;-79
2023/01/11 06:08:44;;;;;;;1.25;0.50;;;10.90;99.90;;;;;;6197839;28;20671;-79
2023/01/11 06:11:47;;;;;;;0.60;0.60;;;10.90;99.90;;;;;;6197552;28;20200;-79
2023/01/11 06:14:48;;;;;;;1.20;0.47;;;10.90;99.90;;;;;;6198535;28;20093;-79
2023/01/11 06:17:50;;;;;;;0.40;0.40;;;10.90;99.90;;;;;;6198222;28;20054;-79
2023/01/11 06:20:53;;;;;;;1.95;0.40;;;10.90;99.90;;;;;;6198348;28;20065;-79
2023/01/11 06:23:56;;;;;;;0.43;0.40;;;10.90;99.90;;;;;;6199601;28;20254;-79
2023/01/11 06:26:58;;;;;;;1.30;0.45;;;11.00;99.90;;;;;;6197951;28;20054;-79
2023/01/11 06:30:03;;;;;;;0.40;0.40;;;11.00;99.90;;;;;;6196953;28;20504;-79
2023/01/11 06:33:05;;;;;;;0.60;0.60;;;11.00;99.90;;;;;;6199705;28;20073;-79
2023/01/11 06:36:09;;;;;;;0.65;0.35;;;11.00;99.90;;;;;;6198854;28;20053;-78
2023/01/11 06:39:12;;;;;;;0.38;0.38;;;11.10;99.90;;;;;;6199400;28;20058;-79
2023/01/11 06:42:14;;;;;;;0.30;0.30;;;11.10;99.90;;;;;;6200248;28;20543;-79
2023/01/11 06:45:16;;;;;;;0.88;0.63;;;11.10;99.90;;;;;;6201773;28;20053;-79
2023/01/11 06:48:18;;;;;;;0.55;0.40;;;11.10;99.90;;;;;;6150407;28;20511;-80
2023/01/11 06:51:20;;;;;;;1.02;0.40;;;11.00;99.90;;;;;;6196422;28;20053;-78
2023/01/11 06:57:39;;;;;;;0.30;0.30;;;11.00;99.90;;;;;;6179379;28;20043;-78
2023/01/11 07:00:40;;;;;;;0.32;0.32;;;11.00;99.90;;;;;;6187849;28;20061;-78
2023/01/11 07:03:42;;;;;;;0.50;0.40;;;11.00;99.90;;;;;;6175536;28;20047;-78
2023/01/11 07:06:44;;;;;;;0.32;0.30;;;11.00;99.90;;;;;;6176311;28;20133;-78
2023/01/11 07:09:47;;;;;;;3.83;0.50;;;11.00;99.90;;;;;;6175940;28;20054;-78
2023/01/11 07:12:52;;;;;;;0.77;0.60;;;11.00;99.90;;;;;;6189216;28;20070;-80
2023/01/11 07:15:57;;;;;;;0.55;0.50;;;11.00;99.90;;;;;;6207164;28;20054;-80
2023/01/11 07:18:59;;;;;;;0.30;0.30;;;11.10;99.90;;;;;;6202646;28;20050;-79
2023/01/11 07:22:00;;;;;;;0.65;0.38;;;11.10;99.90;;;;;;6198316;28;20069;-78
2023/01/11 07:25:05;;;;;;;0.55;0.40;;;11.20;99.90;;;;;;6190045;28;20046;-78
2023/01/11 07:28:08;;;;;;;0.63;0.40;;;11.20;99.90;;;;;;6197608;28;20492;-79
2023/01/11 07:31:09;;;;;;;2.28;0.43;;;11.20;99.90;;;;;;6202140;28;20061;-78
2023/01/11 07:34:11;;;;;;;0.40;0.40;;;11.30;99.90;;;;;;6203441;28;20046;-78
2023/01/11 07:37:13;;;;;;;0.20;0.20;;;11.40;99.90;;;;;;6203462;28;20508;-79
2023/01/11 07:40:17;;;;;;;0.40;0.38;;;11.40;99.90;;;;;;6204987;28;20050;-80
2023/01/11 07:43:21;;;;;;;1.02;0.55;;;11.50;99.90;;;;;;6206998;28;20042;-77
2023/01/11 07:46:24;;;;;;;0.30;0.30;;;11.60;99.90;;;;;;6233904;28;20593;-79
2023/01/11 07:49:27;;;;;;;0.68;0.50;;;11.60;99.90;;;;;;6228136;28;20050;-79
2023/01/11 07:52:30;;;;;;;0.60;0.50;;;11.70;99.90;;;;;;6224811;28;20070;-80
2023/01/11 07:55:33;;;;;;;1.15;0.45;;;11.70;99.90;;;;;;6198011;28;20090;-80
2023/01/11 07:58:35;;;;;;;0.30;0.30;;;11.80;99.90;;;;;;6180193;28;20063;-79
2023/01/11 08:01:42;;;;;;;0.68;0.68;;;11.80;99.90;;;;;;6180958;28;20047;-79
2023/01/11 08:04:44;;;;;;;0.70;0.50;;;11.80;99.90;;;;;;6181640;28;20054;-79
2023/01/11 08:07:46;;;;;;;0.30;0.30;;;11.80;99.90;;;;;;6182203;28;20051;-79
2023/01/11 08:14:37;;;;;;;1.13;0.40;;;11.80;99.90;;;;;;6181836;28;20054;-79
2023/01/11 08:17:34;;;;;;;0.40;0.30;;;11.80;99.90;;;;;;6181250;28;20039;-80
2023/01/11 08:20:36;;;;;;;0.80;0.63;;;11.80;99.90;;;;;;6183284;28;20057;-80
2023/01/11 08:23:38;;;;;;;2.20;1.77;;;11.90;99.90;;;;;;6196957;28;20064;-80
2023/01/11 08:26:41;;;;;;;0.80;0.60;;;11.90;99.90;;;;;;6191063;28;20061;-80
2023/01/11 08:29:43;;;;;;;0.47;0.47;;;11.90;99.90;;;;;;6181904;28;20051;-80
2023/01/11 08:32:45;;;;;;;0.55;0.55;;;11.90;99.90;;;;;;6182803;28;20051;-80
2023/01/11 08:35:47;;;;;;;0.93;0.57;;;11.90;99.90;;;;;;6187130;28;20050;-80
2023/01/11 08:38:49;;;;;;;0.40;0.40;;;12.00;99.90;;;;;;6189143;28;20042;-80
2023/01/11 08:41:52;;;;;;;0.63;0.30;;;12.00;99.90;;;;;;6188696;28;20051;-80
2023/01/11 08:44:54;;;;;;;2.25;0.32;;;12.00;99.90;;;;;;6182794;28;20050;-80
2023/01/11 08:47:56;;;;;;;0.40;0.40;;;12.00;99.90;;;;;;6182687;28;20050;-80
2023/01/11 08:50:57;;;;;;;0.50;0.50;;;12.00;99.90;;;;;;6183632;28;20470;-80
2023/01/11 08:53:59;;;;;;;0.50;0.50;;;11.90;99.90;;;;;;6203480;28;20061;-80
2023/01/11 08:57:02;;;;;;;0.40;0.40;;;11.80;99.90;;;;;;6189934;28;20047;-79
2023/01/11 09:00:05;;;;;;;0.38;0.38;;;11.80;99.90;;;;;;6187789;28;20069;-80
2023/01/11 09:03:09;;;;;;;0.90;0.70;;;11.70;99.90;;;;;;6207491;28;20042;-79
2023/01/11 09:06:11;;;;;;;0.30;0.30;;;11.70;99.90;;;;;;6207295;28;20052;-80
2023/01/11 09:09:13;;;;;;;0.65;0.30;;;11.60;99.90;;;;;;6208385;28;20050;-79
2023/01/11 09:12:16;;;;;;;1.25;0.40;;;11.50;99.90;;;;;;6208790;28;20046;-80
2023/01/11 09:15:18;;;;;;;0.65;0.40;;;11.40;99.90;;;;;;6208052;28;20051;-80
2023/01/11 09:18:20;;;;;;;1.20;0.65;;;11.30;99.90;;;;;;6206147;28;20711;-80
2023/01/11 09:21:22;;;;;;;1.63;0.60;;;11.20;99.90;;;;;;6206930;28;20053;-79
2023/01/11 09:24:24;;;;;;;0.98;0.70;;;11.10;99.90;;;;;;6204635;28;20093;-79
2023/01/11 09:27:27;;;;;;;1.15;0.40;;;11.00;99.90;;;;;;6183544;28;20050;-79
2023/01/11 09:30:29;;;;;;;0.45;0.45;;;10.90;99.90;;;;;;6182415;28;20050;-79
2023/01/11 09:33:30;;;;;;;0.47;0.47;;;10.80;99.90;;;;;;6184705;28;20109;-79
2023/01/11 09:36:34;;;;;;;0.68;0.57;;;10.70;99.90;;;;;;6184212;28;20123;-78
2023/01/11 09:39:36;;;;;;;1.92;0.65;;;10.70;99.90;;;;;;6192107;28;20281;-79
2023/01/11 09:42:41;;;;;;;0.50;0.47;;;10.60;99.90;;;;;;6202175;28;20050;-78
2023/01/11 09:45:49;;;;;;;3.30;1.02;;;10.60;99.90;;;;;;6230798;28;20058;-80
2023/01/11 09:48:57;;;;;;;0.63;0.50;;;10.60;99.90;;;;;;6226435;28;20054;-79
2023/01/11 09:52:09;;;;;;;0.77;0.70;;;10.60;99.90;;;;;;6229916;28;20053;-79
2023/01/11 09:55:18;;;;;;;3.17;1.17;;;10.70;99.90;;;;;;6200869;28;20042;-79
2023/01/11 09:58:41;;;;;;;0.75;0.40;;;10.60;99.90;;;;;;6179234;28;20058;-79
2023/01/11 10:01:49;;;;;;;0.68;0.68;;;10.60;99.90;;;;;;6179980;28;20051;-78
2023/01/11 10:05:08;;;;;;;0.50;0.50;;;10.70;99.90;;;;;;6182496;28;20062;-79
2023/01/11 10:08:26;;;;;;;2.35;2.25;;;10.60;99.90;;;;;;6176940;28;20412;-78
2023/01/11 10:11:40;;;;;;;0.70;0.70;;;10.60;99.90;;;;;;6178768;28;20185;-78
2023/01/11 10:14:59;;;;;;;0.70;0.70;;;10.60;99.90;;;;;;6178505;28;20043;-79
2023/01/11 10:18:21;;;;;;;1.73;0.70;;;10.60;99.90;;;;;;6177739;28;20536;-79
2023/01/11 10:21:28;;;;;;;2.47;0.60;;;10.60;99.90;;;;;;6178691;28;20432;-78
2023/01/11 10:24:37;;;;;;;0.97;0.73;;;10.60;99.90;;;;;;6196805;28;20053;-79
2023/01/11 10:27:43;;;;;;;0.63;0.60;;;10.60;99.90;;;;;;6182563;28;20524;-79
2023/01/11 10:31:05;;;;;;;3.95;0.95;;;10.60;99.90;;;;;;6183504;28;20061;-80
2023/01/11 10:34:29;;;;;;;0.77;0.70;;;10.60;99.90;;;;;;6180765;28;20058;-79
2023/01/11 10:37:46;;;;;;;4.32;1.30;;;10.60;99.90;;;;;;6175895;28;20054;-79
2023/01/11 10:41:07;;;;;;;1.87;1.07;;;10.60;99.90;;;;;;6200614;28;20054;-78
2023/01/11 10:44:21;;;;;;;0.98;0.85;;;10.60;99.90;;;;;;6191081;28;20060;-78
2023/01/11 10:47:31;;;;;;;1.58;0.90;;;10.50;99.90;;;;;;6204114;28;20062;-79
2023/01/11 10:50:39;;;;;;;10.25;0.90;;;10.50;99.90;;;;;;6204861;28;20050;-78
2023/01/11 10:53:54;;;;;;;4.32;1.25;;;10.50;99.90;;;;;;6195856;28;20053;-78
2023/01/11 10:57:07;;;;;;;2.60;1.17;;;10.50;99.90;;;;;;6197854;28;20043;-79
2023/01/11 11:00:18;;;;;;;1.95;1.10;;;10.50;99.90;;;;;;6202435;28;20058;-79
2023/01/11 11:03:43;;;;;;;5.20;0.80;;;10.50;99.90;;;;;;6205950;28;20158;-78
2023/01/11 11:06:58;;;;;;;2.03;0.85;;;10.50;99.90;;;;;;6215355;28;20065;-79
2023/01/11 11:10:06;;;;;;;2.63;1.92;;;10.40;99.90;;;;;;6230022;28;20046;-79
2023/01/11 11:13:13;;;;;;;1.60;1.13;;;10.50;99.90;;;;;;6210823;28;20053;-79
2023/01/11 11:16:29;;;;;;;5.28;1.20;;;10.40;99.90;;;;;;6206982;28;20054;-79
2023/01/11 11:19:33;;;;;;;2.58;1.55;;;10.50;99.90;;;;;;6205667;28;20054;-83
2023/01/11 11:22:35;;;;;;;2.58;1.50;;;10.50;99.90;;;;;;6209322;28;20057;-79
2023/01/11 11:25:39;;;;;;;4.38;1.10;;;10.50;99.90;;;;;;6195694;28;20051;-80
2023/01/11 11:28:59;;;;;;;2.22;1.15;;;10.50;99.90;;;;;;6176492;28;20420;-80
2023/01/11 11:32:01;;;;;;;1.00;0.90;;;10.50;99.90;;;;;;6178926;28;20055;-82
2023/01/11 11:35:06;;;;;;;2.25;0.85;;;10.50;99.90;;;;;;6178280;28;20054;-80
2023/01/11 11:38:26;;;;;;;1.67;0.98;;;10.50;99.90;;;;;;6176693;28;20058;-80
2023/01/11 11:41:27;;;;;;;2.65;1.25;;;10.60;99.90;;;;;;6195231;28;20054;-80
2023/01/11 11:44:29;;;;;;;2.42;1.17;;;10.60;99.90;;;;;;6203123;28;20484;-80
2023/01/11 11:47:31;;;;;;;2.90;1.13;;;10.60;99.90;;;;;;6202536;28;20083;-79
2023/01/11 11:50:35;;;;;;;2.70;1.00;;;10.60;99.90;;;;;;6201603;28;20053;-79
2023/01/11 11:53:42;;;;;;;3.22;1.17;;;10.60;99.90;;;;;;6200735;28;20046;-79
2023/01/11 11:56:44;;;;;;;1.25;1.05;;;10.60;99.90;;;;;;6199420;28;20053;-78
2023/01/11 11:59:48;;;;;;;2.47;0.90;;;10.60;99.90;;;;;;6199574;28;20061;-79
2023/01/11 12:02:53;;;;;;;4.25;1.02;;;10.60;99.90;;;;;;6202836;28;20054;-81
2023/01/11 12:05:59;;;;;;;6.47;1.00;;;10.50;99.90;;;;;;6205152;28;20038;-80
2023/01/11 12:09:02;;;;;;;1.92;1.05;;;10.50;99.90;;;;;;6202638;28;20077;-79
2023/01/11 12:12:04;;;;;;;6.55;1.25;;;10.50;99.90;;;;;;6202882;28;20409;-80
2023/01/11 12:15:19;;;;;;;3.03;1.73;;;10.50;99.90;;;;;;6203247;28;20521;-81
2023/01/11 12:18:25;;;;;;;1.75;1.02;;;10.60;99.90;;;;;;6209667;28;20046;-80
2023/01/11 12:21:29;;;;;;;5.72;4.60;;;10.60;99.90;;;;;;6209683;28;20046;-80
2023/01/11 12:24:32;;;;;;;4.20;2.95;;;10.60;99.90;;;;;;6209967;28;20050;-80
2023/01/11 12:27:41;;;;;;;1.85;1.00;;;10.70;99.90;;;;;;6234182;23;20146;-78
2023/01/11 12:30:48;;;;;;;1.73;1.00;;;10.70;99.90;;;;;;6231116;28;20053;-80
2023/01/11 12:33:58;;;;;;;9.60;7.00;;;10.70;99.90;;;;;;6230976;28;20046;-80
2023/01/11 12:37:12;;;;;;;4.25;3.15;;;10.70;99.90;;;;;;6230916;28;20061;-80
2023/01/11 12:40:22;;;;;;;5.95;2.03;;;10.70;99.90;;;;;;6228157;28;20411;-79
2023/01/11 12:43:35;;;;;;;3.38;3.10;;;10.70;99.90;;;;;;6222321;28;20121;-81
2023/01/11 12:46:54;;;;;;;1.35;0.85;;;10.70;99.90;;;;;;6229088;28;20042;-80
2023/01/11 12:50:00;;;;;;;;;;;10.70;99.90;;;;;;6210132;28;20050;-81
2023/01/11 12:53:18;;;;;;;7.78;7.18;;;10.70;99.90;;;;;;6205857;28;19939;-81
2023/01/11 12:56:41;;;;;;;15.60;14.00;;;10.60;99.90;;;;;;6220903;28;20046;-80
2023/01/11 13:00:04;;;;;;;13.65;12.65;;;10.70;99.90;;;;;;6224775;28;20061;-82
2023/01/11 13:03:39;;;;;;;2.75;2.55;;;10.70;99.90;;;;;;6227865;28;20388;-81
2023/01/11 13:06:47;;;;;;;4.25;3.65;;;10.60;99.90;;;;;;6227982;28;20042;-80
2023/01/11 13:10:02;;;;;;;9.70;8.82;;;10.60;99.90;;;;;;6227227;28;20076;-80
2023/01/11 13:13:11;;;;;;;19.42;18.13;;;10.60;99.90;;;;;;6230299;28;20507;-81
2023/01/11 13:16:17;;;;;;;4.68;3.20;;;10.50;99.90;;;;;;6230419;28;20046;-80
2023/01/11 13:19:26;;;;;;;8.88;7.95;;;10.60;99.90;;;;;;6204918;28;20061;-81
2023/01/11 13:22:30;;;;;;;4.50;2.17;;;10.60;99.90;;;;;;6212741;28;20042;-81
2023/01/11 13:25:38;;;;;;;11.73;8.82;;;10.60;99.90;;;;;;6223836;28;20047;-82
2023/01/11 13:28:43;;;;;;;7.72;4.18;;;10.50;99.90;;;;;;6204373;28;20042;-81
2023/01/11 13:31:48;;;;;;;5.03;3.42;;;10.60;99.90;;;;;;6205559;28;20079;-81
2023/01/11 13:34:55;;;;;;;7.97;5.82;;;10.60;99.90;;;;;;6205864;28;20113;-81
2023/01/11 13:38:05;;;;;;;5.47;2.67;;;10.60;99.90;;;;;;6202656;28;20061;-80
2023/01/11 13:41:15;;;;;;;9.63;6.50;;;10.70;99.90;;;;;;6205000;28;20050;-81
2023/01/11 13:44:22;;;;;;;12.82;9.65;;;10.70;99.90;;;;;;6215002;28;20057;-81
2023/01/11 13:47:31;;;;;;;19.50;13.23;;;10.70;99.90;;;;;;6226849;28;20045;-80
2023/01/11 13:50:39;;;;;;;3.95;2.78;;;10.70;99.90;;;;;;6229083;28;20050;-81
2023/01/11 13:53:49;;;;;;;2.63;2.22;;;10.70;99.90;;;;;;6229238;28;20049;-79
2023/01/11 13:57:00;;;;;;;3.55;2.50;;;10.70;99.90;;;;;;6221813;28;20053;-79
2023/01/11 14:00:07;;;;;;;3.03;1.88;;;10.70;99.90;;;;;;6228946;28;20398;-80
2023/01/11 14:03:20;;;;;;;3.30;2.10;;;10.70;99.90;;;;;;6215710;28;20054;-80
2023/01/11 14:06:34;;;;;;;4.50;3.10;;;10.80;99.90;;;;;;6203523;28;20045;-81
2023/01/11 14:10:06;;;;;;;5.88;1.98;;;10.80;99.90;;;;;;6202451;28;20400;-80
2023/01/11 14:17:20;;;;;;;2.05;1.55;;;10.70;99.90;;;;;;6203026;28;20050;-80
2023/01/11 14:20:32;;;;;;;2.15;1.60;;;10.70;99.90;;;;;;6204029;28;20050;-81
2023/01/11 14:23:41;;;;;;;3.33;1.42;;;10.70;99.90;;;;;;6217773;28;20057;-80
2023/01/11 14:27:04;;;;;;;1.75;1.50;;;10.70;99.90;;;;;;6222644;28;20048;-80
2023/01/11 14:30:39;;;;;;;3.30;3.00;;;10.60;99.90;;;;;;6227217;28;20053;-81
2023/01/11 14:34:25;;;;;;;2.20;2.00;;;10.70;99.90;;;;;;6228643;28;20112;-80
2023/01/11 14:37:52;;;;;;;2.88;2.17;;;10.60;99.90;;;;;;6227054;28;20042;-81
2023/01/11 14:41:08;;;;;;;2.53;1.20;;;10.60;99.90;;;;;;6224760;28;20042;-82
2023/01/11 14:44:48;;;;;;;2.92;2.25;;;10.60;99.90;;;;;;6226310;28;20046;-79
2023/01/11 14:48:21;;;;;;;4.22;3.10;;;10.60;99.90;;;;;;6203326;28;20050;-81
2023/01/11 14:51:30;;;;;;;10.23;1.92;;;10.60;99.90;;;;;;6204037;28;20068;-80
2023/01/11 14:54:35;;;;;;;2.08;1.55;;;10.50;99.90;;;;;;6218566;28;20108;-80
2023/01/11 14:57:39;;;;;;;6.70;2.47;;;10.50;99.90;;;;;;6224235;28;20057;-80
2023/01/11 15:01:05;;;;;;;3.03;1.52;;;10.50;99.90;;;;;;6226844;28;20045;-80
2023/01/11 15:04:22;;;;;;;3.75;1.60;;;10.50;99.90;;;;;;6226646;28;20050;-80
2023/01/11 15:07:34;;;;;;;9.55;1.67;;;10.40;99.90;;;;;;6227132;28;20042;-81
2023/01/11 15:10:46;;;;;;;6.40;1.70;;;10.40;99.90;;;;;;6227416;28;20125;-80
2023/01/11 15:13:52;;;;;;;1.83;1.60;;;10.30;99.90;;;;;;6227046;28;20052;-81
2023/01/11 15:20:20;;;;;;;3.70;1.20;;;10.30;99.90;;;;;;6218916;28;20046;-80
2023/01/11 15:23:24;;;;;;;3.15;1.58;;;10.20;99.90;;;;;;6214907;28;20046;-80
2023/01/11 15:26:27;;;;;;;4.70;1.35;;;10.20;99.90;;;;;;6219149;28;20042;-80
2023/01/11 15:29:31;;;;;;;5.65;1.95;;;10.10;99.90;;;;;;6225601;28;20050;-79
2023/01/11 15:32:34;;;;;;;2.83;2.45;;;10.00;99.90;;;;;;6226699;28;20050;-80
2023/01/11 15:35:36;;;;;;;4.10;1.98;;;10.00;99.90;;;;;;6227967;28;20054;-81
2023/01/11 15:38:48;;;;;;;7.60;1.98;;;9.90;99.90;;;;;;6224261;28;20050;-80
2023/01/11 15:42:04;;;;;;;7.93;4.35;;;9.90;99.90;;;;;;6226625;28;20050;-80
2023/01/11 15:45:31;;;;;;;2.92;1.83;;;9.80;99.90;;;;;;6225241;28;20495;-78
2023/01/11 15:48:52;;;;;;;5.05;1.95;;;9.70;99.90;;;;;;6224482;28;20433;-80
2023/01/11 15:52:29;;;;;;;4.18;2.03;;;9.70;99.90;;;;;;6215215;28;20050;-80
2023/01/11 15:56:06;;;;;;;5.25;1.95;;;9.70;99.90;;;;;;6222726;28;20484;-79
2023/01/11 15:59:51;;;;;;;4.72;1.63;;;9.60;99.90;;;;;;6241803;28;20056;-81
2023/01/11 16:03:22;;;;;;;9.40;1.60;;;9.60;99.90;;;;;;6197762;28;20050;-81
2023/01/11 16:06:40;;;;;;;5.55;1.83;;;9.50;99.90;;;;;;6242811;28;20041;-80
2023/01/11 16:10:10;;;;;;;9.25;2.20;;;9.50;99.90;;;;;;6243438;28;20046;-82
2023/01/11 16:13:37;;;;;;;13.35;2.63;;;9.50;99.90;;;;;;6246799;28;20052;-82
2023/01/11 16:16:42;;;;;;;16.23;4.15;;;9.50;99.90;;;;;;6235642;28;20046;-80
2023/01/11 16:19:45;;;;;;;6.05;2.47;;;9.50;99.90;;;;;;6234806;28;20499;-82
2023/01/11 16:22:51;;;;;;;8.35;3.03;;;9.50;99.90;;;;;;6239567;28;20058;-82
2023/01/11 16:25:57;;;;;;;20.77;6.45;;;9.50;99.90;;;;;;6231900;28;20114;-82
2023/01/11 16:29:07;;;;;;;11.13;2.83;;;9.60;99.90;;;;;;6221347;28;20193;-81
2023/01/11 16:32:20;;;;;;;9.73;1.95;;;9.60;99.90;;;;;;6222274;28;20050;-81
2023/01/11 16:35:24;;;;;;;7.70;1.90;;;9.60;99.90;;;;;;6222598;28;20176;-80
2023/01/11 16:38:27;;;;;;;2.70;1.65;;;9.60;99.90;;;;;;6219343;28;20046;-81
2023/01/11 16:41:37;;;;;;;5.63;1.80;;;9.40;99.90;;;;;;6218401;28;20099;-81
2023/01/11 16:44:45;;;;;;;3.80;1.63;;;9.30;99.90;;;;;;6221486;28;20046;-79
2023/01/11 16:48:03;;;;;;;7.97;4.05;;;9.20;99.90;;;;;;6222907;28;20058;-80
2023/01/11 16:51:08;;;;;;;18.90;11.40;;;9.10;99.90;;;;;;6226046;28;20057;-80